Time;durP1;ratioP1;P1;durP2;ratioP2;P2;SDS_P1;SDS_P2;PMS_P1;PMS_P2;Temp;Humidity;BMP_temperature;BMP_pressure;BME280_temperature;BME280_humidity;BME280_pressure;Samples;Min_cycle;Max_cycle;Signal;HPM_P1;HPM_P2
2022/04/21 00:02:22;;;;;;;5.68;5.10;;;;;;;9.27;59.02;98148.16;4997474;28;103330;-60
2022/04/21 00:04:50;;;;;;;4.43;4.03;;;;;;;9.50;57.05;98145.59;5001670;28;102763;-61
2022/04/21 00:07:18;;;;;;;5.22;4.78;;;;;;;9.61;57.78;98148.22;5000015;28;103664;-61
2022/04/21 00:09:48;;;;;;;6.28;5.20;;;;;;;9.41;57.93;98147.13;5001384;28;103292;-61
2022/04/21 00:12:16;;;;;;;6.67;6.07;;;;;;;8.54;62.87;98144.88;5001523;28;103829;-67
2022/04/21 00:14:45;;;;;;;6.53;5.88;;;;;;;8.45;63.53;98145.53;5000909;28;102638;-67
2022/04/21 00:17:14;;;;;;;6.18;5.40;;;;;;;8.72;62.14;98140.91;5001807;28;103508;-67
2022/04/21 00:19:42;;;;;;;5.80;5.30;;;;;;;8.33;63.95;98135.91;4998496;28;103740;-61
2022/04/21 00:24:56;;;;;;;6.37;5.77;;;;;;;8.13;65.73;98139.09;4998848;28;102897;-61
2022/04/21 00:27:24;;;;;;;6.70;6.07;;;;;;;7.70;66.73;98140.41;4982008;28;103824;-61
2022/04/21 00:29:52;;;;;;;6.38;5.70;;;;;;;7.54;67.54;98138.88;5001211;28;103519;-60
2022/04/21 00:32:20;;;;;;;5.87;5.37;;;;;;;7.58;67.81;98128.94;4999522;28;103282;-60
2022/04/21 00:34:49;;;;;;;5.88;5.30;;;;;;;8.01;66.63;98132.06;5000324;28;102969;-60
2022/04/21 00:37:20;;;;;;;6.38;5.78;;;;;;;7.78;66.77;98138.09;4983031;28;103653;-67
2022/04/21 00:39:50;;;;;;;6.82;6.10;;;;;;;7.20;69.55;98133.38;5000020;28;103265;-60
2022/04/21 00:42:19;;;;;;;7.45;6.10;;;;;;;6.93;70.81;98122.94;4999274;28;102873;-62
2022/04/21 00:44:49;;;;;;;6.72;6.03;;;;;;;7.00;70.77;98124.19;4998568;28;102656;-61
2022/04/21 00:47:18;;;;;;;6.90;6.13;;;;;;;7.06;70.77;98126.41;4983116;28;103763;-61
2022/04/21 00:49:47;;;;;;;7.43;6.63;;;;;;;7.05;70.98;98124.72;4998401;28;104192;-61
2022/04/21 00:52:16;;;;;;;7.65;6.55;;;;;;;7.15;70.70;98117.94;4982456;28;105870;-61
2022/04/21 00:54:44;;;;;;;7.03;6.05;;;;;;;7.30;70.24;98111.63;4982357;28;102718;-60
2022/04/21 00:57:12;;;;;;;6.63;6.03;;;;;;;7.46;69.54;98109.63;4998582;28;104333;-60
2022/04/21 00:59:43;;;;;;;6.72;5.97;;;;;;;7.61;68.96;98104.28;4998850;28;104035;-61
2022/04/21 01:04:56;;;;;;;7.22;6.05;;;;;;;7.47;70.10;98110.47;4999604;28;102599;-61
2022/04/21 01:07:25;;;;;;;7.20;6.30;;;;;;;7.37;70.18;98112.88;4999598;28;103568;-67
2022/04/21 01:09:55;;;;;;;6.53;5.93;;;;;;;7.39;70.36;98105.72;4997781;28;103803;-60
2022/04/21 01:12:24;;;;;;;7.40;6.78;;;;;;;7.46;69.54;98112.28;4982282;28;104396;-60
2022/04/21 01:14:54;;;;;;;7.87;6.20;;;;;;;7.85;68.46;98108.66;5000766;28;102507;-60
2022/04/21 01:17:31;;;;;;;6.55;5.97;;;;;;;7.96;67.50;98121.88;4982353;28;103594;-66
2022/04/21 01:19:59;;;;;;;5.63;5.13;;;;;;;8.27;66.51;98115.31;4998948;28;104024;-66
2022/04/21 01:22:29;;;;;;;6.05;5.55;;;;;;;8.53;65.38;98110.78;4998664;28;103682;-66
2022/04/21 01:24:57;;;;;;;4.32;4.03;;;;;;;8.76;63.88;98109.09;4983603;28;102792;-61
2022/04/21 01:27:30;;;;;;;6.57;6.00;;;;;;;8.59;64.69;98116.41;4999541;28;103020;-66
2022/04/21 01:29:58;;;;;;;5.10;4.60;;;;;;;8.83;63.14;98112.94;5000194;28;104095;-61
2022/04/21 01:32:26;;;;;;;4.50;4.10;;;;;;;8.98;62.13;98107.34;4981721;28;104412;-66
2022/04/21 01:34:54;;;;;;;5.88;5.30;;;;;;;8.87;62.73;98109.13;4980016;28;102689;-61
2022/04/21 01:42:55;;;;;;;6.63;5.93;;;;;;;8.64;63.59;98106.41;4999607;28;103155;-60
2022/04/21 01:45:23;;;;;;;4.82;4.43;;;;;;;8.77;63.71;98101.06;5000604;28;102987;-66
2022/04/21 01:47:51;;;;;;;6.07;5.47;;;;;;;8.72;63.62;98106.69;4999959;28;102587;-61
2022/04/21 01:50:19;;;;;;;5.88;5.28;;;;;;;8.81;62.92;98104.31;4997307;28;104019;-67
2022/04/21 01:52:47;;;;;;;4.60;4.20;;;;;;;8.96;60.67;98105.78;4978243;28;104193;-66
2022/04/21 01:55:17;;;;;;;4.70;4.30;;;;;;;8.97;61.30;98099.56;4999914;28;102907;-66
2022/04/21 01:57:45;;;;;;;6.40;5.80;;;;;;;8.70;63.30;98107.75;5001257;28;102627;-66
2022/04/21 02:00:13;;;;;;;6.30;5.70;;;;;;;8.48;64.36;98102.34;5000488;28;103901;-67
2022/04/21 02:02:42;;;;;;;7.40;6.70;;;;;;;7.32;69.24;98099.22;4986913;28;104965;-66
2022/04/21 02:05:10;;;;;;;6.60;6.00;;;;;;;7.55;69.42;98095.84;4998323;28;103192;-67
2022/04/21 02:07:41;;;;;;;6.93;6.30;;;;;;;7.74;67.31;98097.19;4981232;28;102744;-66
2022/04/21 02:10:10;;;;;;;6.18;5.68;;;;;;;7.97;67.21;98102.50;4980150;28;104189;-66
2022/04/21 02:12:39;;;;;;;6.70;6.13;;;;;;;7.66;68.57;98096.91;5000361;28;103392;-66
2022/04/21 02:15:08;;;;;;;5.60;5.07;;;;;;;8.13;66.08;98095.22;4998819;28;102766;-66
2022/04/21 02:17:36;;;;;;;4.88;4.57;;;;;;;8.37;64.72;98089.97;4980557;28;102827;-66
2022/04/21 02:20:06;;;;;;;6.22;5.72;;;;;;;8.34;64.63;98079.69;4995581;28;103309;-66
2022/04/21 02:22:35;;;;;;;5.88;5.38;;;;;;;8.26;64.96;98084.63;4996455;28;104291;-66
2022/04/21 02:25:03;;;;;;;5.70;5.30;;;;;;;8.28;65.13;98080.13;4999635;28;102851;-66
2022/04/21 02:27:35;;;;;;;6.03;5.53;;;;;;;8.16;66.10;98083.63;4999210;28;102905;-66
2022/04/21 02:30:06;;;;;;;5.72;5.32;;;;;;;8.29;65.42;98081.81;5000131;28;104016;-66
2022/04/21 02:32:34;;;;;;;4.00;3.70;;;;;;;8.44;63.40;98074.59;4998814;28;103453;-67
2022/04/21 02:35:03;;;;;;;4.05;3.75;;;;;;;8.54;63.09;98076.44;4998803;28;102670;-67
2022/04/21 02:37:36;;;;;;;5.30;4.80;;;;;;;8.57;63.19;98076.19;4997839;28;103705;-66
2022/04/21 02:40:05;;;;;;;7.67;6.97;;;;;;;7.70;66.78;98082.56;4998468;28;103410;-66
2022/04/21 02:42:33;;;;;;;7.30;6.70;;;;;;;7.08;70.96;98084.28;4996726;28;103095;-66
2022/04/21 02:45:03;;;;;;;8.32;7.63;;;;;;;6.58;72.59;98074.53;4998552;28;102501;-66
2022/04/21 02:47:33;;;;;;;7.30;6.70;;;;;;;7.03;71.77;98076.72;4998260;28;104040;-66
2022/04/21 02:50:01;;;;;;;8.10;7.40;;;;;;;7.10;71.53;98077.16;4994317;28;103919;-60
2022/04/21 02:52:29;;;;;;;7.53;6.90;;;;;;;7.19;71.39;98069.47;4997986;28;103478;-61
2022/04/21 02:57:43;;;;;;;7.90;7.20;;;;;;;7.18;71.40;98069.59;4997991;28;103902;-66
2022/04/21 03:00:12;;;;;;;7.87;7.07;;;;;;;7.24;71.57;98070.00;4981108;28;103194;-60
2022/04/21 03:02:42;;;;;;;9.40;8.70;;;;;;;6.52;74.66;98064.44;5001464;28;103484;-60
2022/04/21 03:05:11;;;;;;;9.40;8.50;;;;;;;6.65;74.63;98065.34;5002890;28;102804;-60
2022/04/21 03:07:39;;;;;;;7.87;7.27;;;;;;;6.92;73.83;98064.31;5001355;28;103807;-66
2022/04/21 03:10:08;;;;;;;9.47;8.63;;;;;;;6.67;74.22;98060.81;5000012;28;103583;-66
2022/04/21 03:12:36;;;;;;;10.07;9.25;;;;;;;6.56;75.39;98052.81;5000896;28;103190;-60
2022/04/21 03:15:05;;;;;;;8.43;7.72;;;;;;;7.18;73.06;98056.44;5000614;28;102630;-61
2022/04/21 03:17:33;;;;;;;7.63;6.95;;;;;;;7.53;70.34;98055.69;5001741;28;102784;-60
2022/04/21 03:20:02;;;;;;;5.38;4.97;;;;;;;7.79;67.77;98042.47;5001061;28;103249;-66
2022/04/21 03:25:20;;;;;;;6.35;5.85;;;;;;;7.97;67.07;98041.19;4984021;28;102622;-65
2022/04/21 03:27:50;;;;;;;8.55;7.85;;;;;;;7.45;69.39;98044.88;5002647;28;103813;-61
2022/04/21 03:30:18;;;;;;;9.10;8.20;;;;;;;7.03;72.10;98049.59;5001001;28;103285;-61
2022/04/21 03:32:46;;;;;;;7.97;7.37;;;;;;;7.10;72.71;98057.00;5001724;28;102963;-67
2022/04/21 03:35:16;;;;;;;6.97;6.38;;;;;;;7.51;69.69;98052.31;5001351;28;102825;-66
2022/04/21 03:37:44;;;;;;;7.00;6.40;;;;;;;7.59;69.41;98049.16;5003426;28;103868;-67
2022/04/21 03:40:13;;;;;;;9.07;8.38;;;;;;;7.09;71.60;98054.44;5000075;28;104402;-66
2022/04/21 03:42:41;;;;;;;11.27;10.32;;;;;;;5.81;78.02;98064.66;5001096;28;103349;-66
2022/04/21 03:45:12;;;;;;;10.32;9.52;;;;;;;6.34;76.69;98062.06;5004021;28;102605;-60
2022/04/21 03:47:40;;;;;;;9.10;8.32;;;;;;;6.83;74.45;98059.69;4999135;28;103593;-60
2022/04/21 03:50:09;;;;;;;7.70;7.13;;;;;;;7.20;71.11;98047.53;4999502;28;103266;-60
2022/04/21 03:52:38;;;;;;;8.63;7.93;;;;;;;7.22;72.01;98052.66;4984141;28;103239;-60
2022/04/21 03:55:07;;;;;;;9.90;9.10;;;;;;;6.82;73.33;98059.81;5001289;28;102888;-60
2022/04/21 03:57:35;;;;;;;9.98;9.02;;;;;;;6.72;74.21;98056.09;5000649;28;103799;-66
2022/04/21 04:00:04;;;;;;;7.70;7.07;;;;;;;7.20;72.10;98054.56;4999814;28;103703;-66
2022/04/21 04:02:37;;;;;;;6.38;5.88;;;;;;;7.48;69.53;98060.44;5001187;28;103141;-57
2022/04/21 04:05:06;;;;;;;7.20;6.60;;;;;;;7.48;69.20;98057.81;4996379;28;102691;-65
2022/04/21 04:13:06;;;;;;;8.85;8.07;;;;;;;7.51;69.20;98049.69;4994697;28;104461;-60
2022/04/21 04:15:34;;;;;;;10.13;9.32;;;;;;;6.81;72.05;98044.97;4991902;28;103709;-65
2022/04/21 04:18:02;;;;;;;10.32;9.32;;;;;;;6.95;72.02;98055.41;4978397;28;103007;-60
2022/04/21 04:20:30;;;;;;;8.90;8.20;;;;;;;6.95;72.62;98052.75;4980571;28;103229;-60
2022/04/21 04:22:58;;;;;;;8.18;7.47;;;;;;;7.24;70.29;98054.22;4978482;28;104262;-60
2022/04/21 04:25:28;;;;;;;5.28;4.88;;;;;;;7.50;68.11;98058.53;4984364;28;102997;-65
2022/04/21 04:27:57;;;;;;;8.33;7.63;;;;;;;7.59;67.74;98057.88;4987537;28;104131;-65
2022/04/21 04:30:31;;;;;;;6.72;6.20;;;;;;;7.63;67.34;98055.03;5006302;28;103276;-66
2022/04/21 04:33:00;;;;;;;8.13;7.40;;;;;;;7.56;67.97;98055.47;4985031;28;103068;-60
2022/04/21 04:35:29;;;;;;;10.07;9.23;;;;;;;6.69;71.64;98051.03;4971060;28;102778;-59
2022/04/21 04:37:57;;;;;;;10.13;9.13;;;;;;;6.64;72.67;98064.47;4988804;28;103147;-59
2022/04/21 04:40:25;;;;;;;10.80;9.90;;;;;;;6.20;75.80;98056.88;4993786;28;103238;-60
2022/04/21 04:42:54;;;;;;;10.32;9.43;;;;;;;6.42;74.28;98051.09;4973412;28;103235;-59
2022/04/21 04:48:08;;;;;;;8.65;7.93;;;;;;;7.13;71.81;98050.69;4970883;28;103926;-59
2022/04/21 04:50:36;;;;;;;6.20;5.80;;;;;;;7.40;69.26;98046.97;4992844;28;103941;-59
2022/04/21 04:53:09;;;;;;;8.87;8.07;;;;;;;7.45;69.56;98044.88;4989614;28;103309;-60
2022/04/21 04:55:37;;;;;;;7.20;6.68;;;;;;;7.49;69.90;98054.19;4979494;28;102914;-60
2022/04/21 04:58:06;;;;;;;5.55;5.15;;;;;;;7.69;67.64;98046.72;4970837;28;103180;-64
2022/04/21 05:00:34;;;;;;;9.52;8.73;;;;;;;7.25;71.03;98050.66;4984663;28;103261;-59
2022/04/21 05:03:05;;;;;;;10.50;9.50;;;;;;;6.89;72.90;98054.03;4986013;28;103326;-64
2022/04/21 05:05:33;;;;;;;8.77;8.07;;;;;;;6.96;74.18;98050.03;4984986;28;103185;-57
2022/04/21 05:08:05;;;;;;;9.77;8.98;;;;;;;7.25;72.79;98045.41;4987562;28;102750;-59
2022/04/21 05:10:33;;;;;;;9.43;8.63;;;;;;;7.56;72.14;98052.84;4997449;28;104049;-59
2022/04/21 05:13:01;;;;;;;7.63;7.03;;;;;;;7.74;71.06;98044.59;4993349;28;103651;-65
2022/04/21 05:15:31;;;;;;;9.13;8.32;;;;;;;7.76;69.61;98061.09;4994300;28;102618;-60
2022/04/21 05:17:59;;;;;;;7.65;7.03;;;;;;;7.81;71.13;98048.47;4994138;28;103885;-59
2022/04/21 05:20:28;;;;;;;6.83;6.33;;;;;;;8.05;68.70;98050.19;4992086;28;103222;-61
2022/04/21 05:23:04;;;;;;;6.72;6.22;;;;;;;8.21;69.10;98049.06;4991147;28;103223;-60
2022/04/21 05:25:36;;;;;;;6.88;6.28;;;;;;;8.33;68.33;98046.44;4989666;28;103321;-60
2022/04/21 05:28:05;;;;;;;7.22;6.70;;;;;;;8.41;68.18;98044.06;4998575;28;104102;-60
2022/04/21 05:33:23;;;;;;;8.93;8.23;;;;;;;7.99;70.42;98047.16;4975679;28;103479;-60
2022/04/21 05:35:51;;;;;;;8.45;7.65;;;;;;;8.43;68.80;98050.06;4997901;28;102608;-60
2022/04/21 05:38:21;;;;;;;8.05;7.25;;;;;;;8.63;68.08;98040.69;4968137;28;102675;-61
2022/04/21 05:40:50;;;;;;;8.80;7.97;;;;;;;8.83;67.54;98041.81;4992268;28;103880;-60
2022/04/21 05:43:23;;;;;;;8.20;7.43;;;;;;;8.88;66.96;98051.06;4991936;28;103182;-62
2022/04/21 05:45:53;;;;;;;7.97;7.28;;;;;;;9.05;66.68;98041.88;4996025;28;102922;-59
2022/04/21 05:48:22;;;;;;;11.90;10.25;;;;;;;8.61;67.42;98051.34;4996100;28;102659;-60
2022/04/21 05:50:53;;;;;;;8.30;7.63;;;;;;;8.92;66.45;98049.88;4994356;28;103413;-62
2022/04/21 05:53:26;;;;;;;9.47;8.67;;;;;;;9.12;66.29;98046.53;4993443;28;103225;-59
2022/04/21 05:55:55;;;;;;;10.82;9.88;;;;;;;8.76;67.41;98048.50;4997107;28;102829;-62
2022/04/21 05:58:24;;;;;;;12.50;11.40;;;;;;;8.27;70.32;98052.13;4996030;28;103003;-62
2022/04/21 06:00:54;;;;;;;12.75;11.68;;;;;;;7.96;72.11;98052.66;4997263;28;103639;-62
2022/04/21 06:03:29;;;;;;;12.00;10.90;;;;;;;8.09;71.91;98043.75;4999116;28;103192;-59
2022/04/21 06:05:57;;;;;;;11.18;10.05;;;;;;;8.31;70.43;98043.06;4973076;28;103565;-62
2022/04/21 06:08:25;;;;;;;12.50;11.50;;;;;;;7.59;72.77;98049.16;4996819;28;103035;-61
2022/04/21 06:10:56;;;;;;;12.10;11.00;;;;;;;8.00;72.72;98043.59;4992290;28;103277;-59
2022/04/21 06:13:25;;;;;;;12.90;11.63;;;;;;;7.92;73.04;98045.91;4993194;28;103362;-60
2022/04/21 06:15:54;;;;;;;11.77;10.77;;;;;;;8.15;72.80;98047.72;4989061;28;103908;-59
2022/04/21 06:18:23;;;;;;;12.05;10.98;;;;;;;8.51;71.82;98045.06;4973353;28;103756;-60
2022/04/21 06:20:52;;;;;;;9.63;8.90;;;;;;;9.27;69.16;98033.97;4993584;28;104536;-60
2022/04/21 06:23:21;;;;;;;10.07;9.17;;;;;;;9.37;69.02;98029.69;4998347;28;103170;-60
2022/04/21 06:25:51;;;;;;;12.88;11.75;;;;;;;8.93;70.15;98029.63;4993090;28;102940;-60
2022/04/21 06:28:19;;;;;;;12.70;11.50;;;;;;;8.64;70.79;98030.06;4997710;28;103649;-60
2022/04/21 06:30:48;;;;;;;12.73;11.73;;;;;;;8.19;71.76;98028.16;4974808;28;104270;-59
2022/04/21 06:33:19;;;;;;;12.93;11.67;;;;;;;8.76;70.50;98032.72;4978412;28;103902;-60
2022/04/21 06:35:47;;;;;;;12.75;11.73;;;;;;;8.37;71.31;98032.06;4994768;28;102967;-59
2022/04/21 06:38:15;;;;;;;12.98;11.90;;;;;;;8.96;69.48;98029.38;4977450;28;104273;-62
2022/04/21 06:40:43;;;;;;;11.17;10.27;;;;;;;9.69;67.41;98024.50;4997965;28;103262;-61
2022/04/21 06:48:46;;;;;;;13.48;12.27;;;;;;;9.75;67.10;98019.59;4994222;28;102944;-60
2022/04/21 06:51:15;;;;;;;13.70;12.60;;;;;;;9.17;68.94;98043.56;5000213;28;103443;-60
2022/04/21 06:53:43;;;;;;;13.27;12.07;;;;;;;9.68;67.91;98028.97;4996897;28;103165;-63
2022/04/21 06:56:13;;;;;;;13.38;12.32;;;;;;;9.75;67.51;98030.16;4990841;28;102669;-62
2022/04/21 06:58:41;;;;;;;11.23;10.43;;;;;;;10.69;65.46;98029.56;4973430;28;102980;-62
2022/04/21 07:01:09;;;;;;;12.15;11.25;;;;;;;10.79;64.86;98020.72;4992319;28;104316;-62
2022/04/21 07:03:38;;;;;;;11.63;10.82;;;;;;;10.66;65.54;98030.66;4992313;28;103218;-62
2022/04/21 07:06:07;;;;;;;11.27;10.40;;;;;;;11.02;64.22;98030.22;4993090;28;102621;-60
2022/04/21 07:08:35;;;;;;;12.27;11.37;;;;;;;10.65;66.22;98026.31;5000168;28;103747;-62
2022/04/21 07:11:03;;;;;;;13.97;12.67;;;;;;;9.89;66.53;98026.41;4993944;28;103161;-63
2022/04/21 07:13:34;;;;;;;13.20;12.10;;;;;;;10.28;66.65;98025.03;4999638;28;103293;-60
2022/04/21 07:16:02;;;;;;;12.25;11.27;;;;;;;11.21;63.61;98026.00;4999947;28;103423;-60
2022/04/21 07:18:30;;;;;;;13.07;11.98;;;;;;;11.10;63.67;98031.34;5002460;28;102929;-60
2022/04/21 07:21:00;;;;;;;12.63;11.63;;;;;;;11.72;62.07;98018.03;4979125;28;104019;-60
2022/04/21 07:23:30;;;;;;;13.07;11.88;;;;;;;11.46;61.63;98028.19;4978047;28;104184;-60
2022/04/21 07:25:58;;;;;;;13.30;12.13;;;;;;;11.60;62.63;98025.19;4967608;28;102674;-62
2022/04/21 07:28:25;;;;;;;13.25;12.05;;;;;;;11.29;61.99;98028.81;4969924;28;104059;-59
2022/04/21 07:30:53;;;;;;;13.98;12.77;;;;;;;10.12;64.53;98030.69;5001076;28;103611;-63
2022/04/21 07:33:22;;;;;;;13.75;12.50;;;;;;;11.09;62.20;98033.16;5001885;28;103224;-63
2022/04/21 07:35:50;;;;;;;13.10;12.10;;;;;;;11.79;61.93;98025.28;4977262;28;102990;-63
2022/04/21 07:38:18;;;;;;;13.02;11.77;;;;;;;12.43;59.61;98024.88;4976167;28;103780;-63
2022/04/21 07:40:52;;;;;;;12.87;11.87;;;;;;;13.00;56.95;98024.84;4969586;28;104267;-63
2022/04/21 07:43:21;;;;;;;13.77;12.48;;;;;;;11.95;59.40;98024.81;4975122;28;104561;-61
2022/04/21 07:45:50;;;;;;;13.43;12.23;;;;;;;11.85;58.95;98022.13;4997337;28;102725;-60
2022/04/21 07:48:18;;;;;;;12.93;11.68;;;;;;;12.92;58.30;98022.06;4999670;28;102745;-63
2022/04/21 07:50:46;;;;;;;11.52;10.63;;;;;;;13.67;56.60;98006.09;4996304;28;103839;-62
2022/04/21 07:53:22;;;;;;;13.57;12.25;;;;;;;12.91;56.24;98009.81;4999140;28;103902;-63
2022/04/21 07:55:52;;;;;;;11.80;10.88;;;;;;;13.57;57.06;98009.78;5001249;28;102670;-63
2022/04/21 07:58:21;;;;;;;13.30;12.25;;;;;;;13.99;54.24;97999.50;5000860;28;103461;-63
2022/04/21 08:00:50;;;;;;;13.15;12.13;;;;;;;13.89;54.70;97996.94;5000208;28;103961;-60
2022/04/21 08:03:20;;;;;;;12.18;11.25;;;;;;;14.81;52.92;98005.50;4999080;28;104133;-62
2022/04/21 08:05:48;;;;;;;12.57;11.63;;;;;;;14.77;54.05;97994.34;4995412;28;102622;-61
2022/04/21 08:08:16;;;;;;;12.50;11.40;;;;;;;15.37;52.03;97997.94;5000917;28;103925;-61
2022/04/21 08:10:44;;;;;;;11.50;10.70;;;;;;;15.48;51.96;97999.50;4978538;28;104259;-61
2022/04/21 08:13:20;;;;;;;13.33;12.13;;;;;;;14.03;53.05;98001.75;4999465;28;103172;-62
2022/04/21 08:15:49;;;;;;;13.40;12.40;;;;;;;13.64;54.25;97997.63;4996452;28;102879;-61
2022/04/21 08:18:17;;;;;;;12.00;11.10;;;;;;;15.11;52.05;97991.78;4997639;28;103953;-62
2022/04/21 08:20:48;;;;;;;12.52;11.63;;;;;;;14.88;51.16;97990.59;4972841;28;104175;-61
2022/04/21 08:23:18;;;;;;;13.13;12.02;;;;;;;15.05;51.87;97993.22;4999828;28;103895;-62
2022/04/21 08:34:28;;;;;;;11.07;10.27;;;;;;;14.72;51.71;97979.84;4997320;28;103181;-64
2022/04/21 08:36:57;;;;;;;11.63;10.70;;;;;;;15.24;50.41;97978.06;4981864;28;102968;-64
2022/04/21 08:39:25;;;;;;;11.73;10.80;;;;;;;15.38;49.47;97983.63;4998163;28;104172;-64
2022/04/21 08:41:59;;;;;;;11.95;10.90;;;;;;;15.31;49.16;97976.44;4980500;28;104156;-63
2022/04/21 08:44:32;;;;;;;11.48;10.63;;;;;;;16.23;48.76;97977.31;4999183;28;103217;-64
2022/04/21 08:47:07;;;;;;;11.73;10.63;;;;;;;17.39;47.11;97974.34;4999402;28;103002;-64
2022/04/21 08:49:36;;;;;;;11.18;10.30;;;;;;;17.93;45.19;97973.53;5000431;28;104380;-63
2022/04/21 08:52:04;;;;;;;11.25;10.45;;;;;;;17.20;45.32;97961.38;4997316;28;103332;-63
2022/04/21 08:54:32;;;;;;;11.93;10.90;;;;;;;15.66;47.61;97971.00;4999423;28;103224;-63
2022/04/21 08:57:02;;;;;;;11.05;10.13;;;;;;;16.86;46.11;97963.41;4998944;28;102709;-63
2022/04/21 08:59:31;;;;;;;11.70;10.80;;;;;;;17.53;44.89;97965.63;5000125;28;102903;-63
2022/04/21 09:02:00;;;;;;;10.53;9.73;;;;;;;17.88;45.73;97965.16;4997784;28;103324;-64
2022/04/21 09:04:30;;;;;;;10.63;9.70;;;;;;;18.98;45.21;97955.91;4999726;28;103222;-63
2022/04/21 09:07:14;;;;;;;10.50;9.70;;;;;;;16.81;44.72;97964.75;4997147;28;103259;-61
2022/04/21 09:10:00;;;;;;;10.20;9.30;;;;;;;16.60;46.88;97969.75;4998829;28;104759;-64
2022/04/21 09:12:28;;;;;;;9.73;9.02;;;;;;;17.48;44.87;97959.97;4974486;28;104262;-64
2022/04/21 09:14:58;;;;;;;10.95;10.05;;;;;;;15.77;46.95;97959.22;4999242;28;103201;-64
2022/04/21 09:17:29;;;;;;;9.70;8.88;;;;;;;17.00;46.68;97952.06;4975632;28;102709;-64
2022/04/21 09:20:01;;;;;;;10.27;9.47;;;;;;;18.63;43.51;97949.38;4997448;28;104492;-61
2022/04/21 09:22:34;;;;;;;9.77;8.90;;;;;;;18.43;42.02;97949.00;4993503;28;103877;-61
2022/04/21 09:25:02;;;;;;;8.90;8.20;;;;;;;18.90;41.34;97947.97;4998890;28;103182;-61
2022/04/21 09:27:41;;;;;;;10.35;9.50;;;;;;;17.05;44.17;97955.06;4976104;28;103093;-61
2022/04/21 09:30:13;;;;;;;9.90;9.10;;;;;;;18.10;43.97;97942.19;4997836;28;103839;-61
2022/04/21 09:32:42;;;;;;;9.00;8.30;;;;;;;18.27;43.06;97942.94;4996153;28;103576;-61
2022/04/21 09:35:11;;;;;;;8.15;7.55;;;;;;;17.16;42.54;97946.69;4997378;28;103186;-64
2022/04/21 09:37:49;;;;;;;7.85;7.25;;;;;;;18.98;40.68;97948.72;4998818;28;103068;-61
2022/04/21 09:40:18;;;;;;;6.97;6.47;;;;;;;19.86;40.88;97937.25;4998275;28;103094;-61
2022/04/21 09:42:57;;;;;;;8.40;7.50;;;;;;;16.55;43.07;97947.25;4998484;28;103445;-62
2022/04/21 09:48:22;;;;;;;6.68;6.00;;;;;;;17.02;43.45;97936.72;4999870;28;102749;-61
2022/04/21 09:50:53;;;;;;;6.70;6.23;;;;;;;17.07;45.00;97926.34;4998804;28;104376;-61
2022/04/21 09:53:23;;;;;;;6.27;5.77;;;;;;;16.74;45.03;97937.09;4999005;28;104181;-61
2022/04/21 09:55:53;;;;;;;6.25;5.72;;;;;;;16.30;44.68;97927.72;4998523;28;103268;-65
2022/04/21 09:58:21;;;;;;;5.60;5.20;;;;;;;16.63;44.36;97932.09;4997223;28;102649;-64
2022/04/21 10:00:51;;;;;;;5.90;5.40;;;;;;;16.25;45.16;97924.72;4998945;28;104105;-61
2022/04/21 10:03:22;;;;;;;6.80;6.30;;;;;;;15.83;44.92;97918.63;4998646;28;103780;-61
2022/04/21 10:05:50;;;;;;;6.10;5.47;;;;;;;16.57;45.31;97913.25;4998563;28;103217;-65
2022/04/21 10:08:18;;;;;;;5.63;5.22;;;;;;;16.49;45.40;97911.41;4998705;28;102971;-65
2022/04/21 10:10:51;;;;;;;5.47;4.97;;;;;;;16.23;44.96;97910.69;4999394;28;102871;-65
2022/04/21 10:13:20;;;;;;;5.43;4.93;;;;;;;17.47;45.08;97896.88;4973102;28;103292;-65
2022/04/21 10:15:48;;;;;;;5.00;4.50;;;;;;;17.20;44.48;97900.00;4998523;28;104116;-65
2022/04/21 10:18:18;;;;;;;5.57;5.15;;;;;;;16.99;45.49;97897.03;4999329;28;102647;-65
2022/04/21 10:20:55;;;;;;;5.43;4.97;;;;;;;17.51;45.09;97898.22;4976278;28;103988;-65
2022/04/21 10:23:26;;;;;;;4.80;4.50;;;;;;;16.37;45.18;97895.88;4996333;28;103617;-65
2022/04/21 10:26:02;;;;;;;4.95;4.55;;;;;;;17.91;43.25;97873.97;4999534;28;103920;-65
2022/04/21 10:28:56;;;;;;;5.60;5.20;;;;;;;17.11;44.64;97882.34;4998442;28;102763;-62
2022/04/21 10:31:32;;;;;;;5.40;4.90;;;;;;;17.60;44.13;97885.69;4998664;28;103951;-62
2022/04/21 10:34:06;;;;;;;5.60;5.20;;;;;;;16.80;44.80;97882.22;4998657;28;104577;-65
2022/04/21 10:36:47;;;;;;;5.43;5.00;;;;;;;16.85;44.59;97873.72;4977476;28;103174;-61
2022/04/21 10:39:26;;;;;;;5.53;5.00;;;;;;;18.28;42.19;97869.72;4995182;28;102710;-65
2022/04/21 10:42:22;;;;;;;6.00;4.95;;;;;;;18.49;42.61;97864.56;4997250;28;103637;-66
2022/04/21 10:44:52;;;;;;;5.13;4.75;;;;;;;19.33;39.94;97856.16;4961619;28;103282;-66
2022/04/21 10:47:33;;;;;;;4.63;4.15;;;;;;;18.60;41.85;97857.97;4983356;28;103250;-66
2022/04/21 10:50:13;;;;;;;4.37;4.07;;;;;;;19.78;40.34;97841.72;4991449;28;103058;-66
2022/04/21 10:58:53;;;;;;;4.72;4.38;;;;;;;19.83;39.99;97831.25;4978199;28;103188;-62
2022/04/21 11:01:34;;;;;;;4.18;3.85;;;;;;;19.14;41.29;97824.63;4968043;28;102727;-61
2022/04/21 11:04:17;;;;;;;3.95;3.67;;;;;;;19.63;40.53;97831.03;4982725;28;102870;-61
2022/04/21 11:07:05;;;;;;;3.90;3.60;;;;;;;19.55;40.53;97822.28;4985063;28;104816;-62
2022/04/21 11:09:41;;;;;;;3.28;3.08;;;;;;;19.92;39.69;97821.25;4986743;28;103071;-62
2022/04/21 11:12:50;;;;;;;3.78;3.47;;;;;;;18.24;41.48;97826.50;4985753;28;102724;-62
2022/04/21 11:15:39;;;;;;;3.20;3.00;;;;;;;19.95;40.69;97823.53;4992039;28;103117;-61
2022/04/21 11:18:09;;;;;;;3.30;3.00;;;;;;;20.39;40.67;97815.31;4993258;28;103248;-61
2022/04/21 11:20:39;;;;;;;3.27;2.97;;;;;;;18.79;41.71;97826.16;4989978;28;103263;-61
2022/04/21 11:23:10;;;;;;;3.38;3.08;;;;;;;19.65;40.22;97817.44;4972633;28;103864;-61
2022/04/21 11:25:38;;;;;;;2.83;2.63;;;;;;;18.83;40.80;97799.88;4995460;28;103860;-61
2022/04/21 11:28:07;;;;;;;3.55;2.50;;;;;;;19.72;40.61;97796.91;4991187;28;103729;-61
2022/04/21 11:30:35;;;;;;;3.00;2.80;;;;;;;18.75;41.81;97798.09;4992114;28;103575;-61
2022/04/21 11:33:10;;;;;;;2.83;2.63;;;;;;;18.99;41.34;97789.81;4979983;28;102850;-60
2022/04/21 11:35:42;;;;;;;2.53;2.33;;;;;;;18.64;43.93;97795.88;4996210;28;102913;-65
2022/04/21 11:38:13;;;;;;;2.40;2.20;;;;;;;19.47;40.84;97787.56;4996526;28;104072;-65
2022/04/21 11:40:41;;;;;;;2.50;2.30;;;;;;;18.67;41.68;97789.31;4999127;28;104158;-66
2022/04/21 11:43:16;;;;;;;3.73;2.70;;;;;;;17.52;41.86;97793.06;4983340;28;102703;-66
2022/04/21 11:45:55;;;;;;;2.63;2.43;;;;;;;18.16;42.31;97790.97;4988275;28;104303;-66
2022/04/21 11:48:28;;;;;;;3.60;2.60;;;;;;;18.57;40.80;97778.91;4988649;28;103337;-66
2022/04/21 11:50:59;;;;;;;2.40;2.20;;;;;;;19.78;40.62;97769.38;4994128;28;103266;-66
2022/04/21 11:53:31;;;;;;;2.50;2.30;;;;;;;18.99;41.29;97786.31;4997982;28;103257;-66
2022/04/21 11:55:59;;;;;;;3.17;2.50;;;;;;;18.25;41.59;97768.47;4998064;28;102714;-66
2022/04/21 11:58:28;;;;;;;2.35;2.20;;;;;;;19.09;40.76;97763.59;4975926;28;103308;-66
2022/04/21 12:06:39;;;;;;;2.70;2.50;;;;;;;19.60;40.77;97763.59;4959308;28;103987;-62
2022/04/21 12:09:14;;;;;;;2.63;2.23;;;;;;;18.45;42.21;97764.28;4990520;28;103811;-66
2022/04/21 12:11:43;;;;;;;3.20;3.00;;;;;;;17.25;44.45;97769.53;4996008;28;103544;-66
2022/04/21 12:14:12;;;;;;;3.20;2.90;;;;;;;17.76;44.00;97752.88;4991050;28;103531;-66
2022/04/21 12:16:45;;;;;;;2.95;2.72;;;;;;;18.74;42.38;97759.00;4978704;28;103959;-66
2022/04/21 12:19:19;;;;;;;2.97;2.78;;;;;;;18.39;43.08;97747.13;4996922;28;104033;-62
2022/04/21 12:21:56;;;;;;;2.90;2.60;;;;;;;18.66;42.12;97751.06;4973381;28;103289;-66
2022/04/21 12:24:32;;;;;;;3.10;2.80;;;;;;;18.18;42.34;97739.00;4992370;28;102690;-62
2022/04/21 12:27:02;;;;;;;2.47;2.28;;;;;;;18.17;42.47;97741.84;4990952;28;103880;-62
2022/04/21 12:29:31;;;;;;;2.50;2.30;;;;;;;18.26;42.92;97738.06;4998768;28;103244;-67
2022/04/21 12:32:04;;;;;;;2.80;1.98;;;;;;;18.91;42.04;97740.91;4996152;28;103262;-62
2022/04/21 12:34:39;;;;;;;2.08;1.98;;;;;;;19.62;39.26;97734.78;4984778;28;103137;-62
2022/04/21 12:37:08;;;;;;;3.08;2.30;;;;;;;18.33;41.62;97736.34;5000079;28;102681;-62